GHB - Wetterstation

--- Lilienthal-Gleiter-Unterfranken e.V. --- (Impressum)
-> Windverlauf / Grafik
-> Barometerverlauf / Grafik
-> Wetter Links
-> WS GHB auf Windy



Bitte Uhrzeit beachten ob Daten aktuell sind!

Anzeige der letzten 100 Messwerte (~8 Stunden)
Datum Zeit Wind Richtung Richtung Böen Temperatur Feuchte Luftdruck
07.12.2022 01:56:55 0 km/h 173 ° S 0 km/h -0.8 °C 78.5 % 1017.32 hPa
07.12.2022 01:52:13 0 km/h 161.2 ° S-SO 0 km/h -0.8 °C 78 % 1017.42 hPa
07.12.2022 01:47:32 0 km/h 128 ° SO 0 km/h -0.8 °C 78.5 % 1017.32 hPa
07.12.2022 01:42:50 0 km/h 269.9 ° W 0 km/h -0.7 °C 78 % 1017.52 hPa
07.12.2022 01:38:09 0.85 km/h 276 ° W 3.24 km/h -0.7 °C 78.5 % 1017.42 hPa
07.12.2022 01:33:27 0 km/h 128 ° SO 0 km/h -0.5 °C 78 % 1017.42 hPa
07.12.2022 01:28:45 0.27 km/h 128.8 ° SO 1.44 km/h -0.4 °C 78.5 % 1017.42 hPa
07.12.2022 01:24:04 0.4 km/h 244.5 ° W-SW 1.8 km/h -0.3 °C 78 % 1017.42 hPa
07.12.2022 01:19:22 0 km/h 330.5 ° N-NW 0 km/h -0.3 °C 78.5 % 1017.52 hPa
07.12.2022 01:14:41 0 km/h 299.6 ° W-NW 0 km/h -0.3 °C 78.5 % 1017.62 hPa
07.12.2022 01:06:10 0.3 km/h 309.9 ° NW 1.08 km/h -0.3 °C 78.5 % 1017.72 hPa
07.12.2022 01:01:29 0.31 km/h 306.1 ° NW 1.8 km/h -0.4 °C 78.5 % 1017.82 hPa
07.12.2022 00:56:47 0 km/h 315.1 ° NW 0 km/h -0.4 °C 78.5 % 1017.82 hPa
07.12.2022 00:52:06 0.27 km/h 297.7 ° W-NW 1.08 km/h -0.4 °C 78.5 % 1017.92 hPa
07.12.2022 00:47:24 0.26 km/h 326.9 ° N-NW 1.08 km/h -0.5 °C 77 % 1017.92 hPa
07.12.2022 00:42:43 0.11 km/h 335.3 ° N-NW 0.72 km/h -0.6 °C 78.5 % 1017.82 hPa
07.12.2022 00:38:01 0.27 km/h 354.7 ° N 0.72 km/h -0.7 °C 77.5 % 1017.82 hPa
07.12.2022 00:33:20 0.54 km/h 325.4 ° NW 1.44 km/h -0.8 °C 78 % 1017.82 hPa
07.12.2022 00:28:38 0.98 km/h 315.8 ° NW 2.88 km/h -0.8 °C 79 % 1017.72 hPa
07.12.2022 00:23:56 0.31 km/h 333.4 ° N-NW 0.72 km/h -0.8 °C 78.5 % 1017.82 hPa
07.12.2022 00:19:14 0.22 km/h 328 ° N-NW 1.44 km/h -0.8 °C 78.5 % 1017.82 hPa
07.12.2022 00:14:33 0.77 km/h 341.6 ° N-NW 2.16 km/h -0.8 °C 78.5 % 1017.92 hPa
07.12.2022 00:09:51 0.77 km/h 319.4 ° NW 3.24 km/h -0.7 °C 78.5 % 1017.72 hPa
07.12.2022 00:05:09 0.76 km/h 335.5 ° N-NW 1.8 km/h -0.7 °C 78.5 % 1017.72 hPa
07.12.2022 00:00:28 0 km/h 306.1 ° NW 0 km/h -0.7 °C 78 % 1017.82 hPa
06.12.2022 23:55:46 0.13 km/h 328.6 ° N-NW 0.72 km/h -0.6 °C 78 % 1017.82 hPa
06.12.2022 23:51:04 0 km/h 346.1 ° N-NW 0 km/h -0.5 °C 78.5 % 1017.82 hPa
06.12.2022 23:46:23 0.01 km/h 296.6 ° W-NW 0.36 km/h -0.4 °C 78.5 % 1017.72 hPa
06.12.2022 23:41:41 0.28 km/h 311.6 ° NW 1.08 km/h -0.3 °C 77 % 1017.82 hPa
06.12.2022 23:37:00 0.05 km/h 331.3 ° N-NW 0.72 km/h -0.1 °C 78 % 1017.82 hPa
06.12.2022 23:32:18 0.45 km/h 335.1 ° N-NW 1.44 km/h 0 °C 78 % 1017.82 hPa
06.12.2022 23:27:36 0.69 km/h 332.6 ° N-NW 2.52 km/h 0.1 °C 78 % 1017.82 hPa
06.12.2022 23:22:54 0 km/h 345 ° N-NW 0 km/h 0.1 °C 78 % 1017.92 hPa
06.12.2022 23:14:32 0.12 km/h 324.2 ° NW 0.72 km/h 0.4 °C 78 % 1017.62 hPa
06.12.2022 23:09:50 0.05 km/h 313.3 ° NW 0.36 km/h 0.5 °C 77.5 % 1017.72 hPa
06.12.2022 23:05:09 0.43 km/h 320.8 ° NW 1.44 km/h 0.5 °C 78.5 % 1017.72 hPa
06.12.2022 23:00:27 1.05 km/h 314.1 ° NW 3.24 km/h 0.5 °C 78 % 1017.72 hPa
06.12.2022 22:55:45 0.07 km/h 315.1 ° NW 0.36 km/h 0.5 °C 78 % 1017.72 hPa
06.12.2022 22:51:04 0.16 km/h 306.9 ° NW 0.72 km/h 0.6 °C 78 % 1017.62 hPa
06.12.2022 22:46:22 0.12 km/h 324.6 ° NW 0.72 km/h 0.6 °C 78 % 1017.72 hPa
06.12.2022 22:41:40 0.25 km/h 323.6 ° NW 1.08 km/h 0.6 °C 78 % 1017.62 hPa
06.12.2022 22:36:58 0.35 km/h 338.3 ° N-NW 2.52 km/h 0.6 °C 78 % 1017.72 hPa
06.12.2022 22:32:17 0.58 km/h 319.6 ° NW 2.52 km/h 0.6 °C 79.5 % 1017.72 hPa
06.12.2022 22:27:35 0.33 km/h 318.9 ° NW 1.8 km/h 0.6 °C 78 % 1017.62 hPa
06.12.2022 22:22:53 1.26 km/h 309.1 ° NW 4.68 km/h 0.6 °C 78 % 1017.62 hPa
06.12.2022 22:18:11 0.45 km/h 321.2 ° NW 2.16 km/h 0.7 °C 78 % 1017.62 hPa
06.12.2022 22:13:30 0.82 km/h 303.2 ° W-NW 2.16 km/h 0.7 °C 78.5 % 1017.62 hPa
06.12.2022 22:08:48 0.6 km/h 312 ° NW 1.44 km/h 0.7 °C 78 % 1017.62 hPa
06.12.2022 22:04:06 0.99 km/h 309.5 ° NW 2.16 km/h 0.6 °C 78 % 1017.62 hPa
06.12.2022 21:59:24 0.12 km/h 298.7 ° W-NW 0.72 km/h 0.6 °C 78 % 1017.62 hPa
06.12.2022 21:51:22 0 km/h 328 ° N-NW 0 km/h 0.7 °C 78 % 1017.72 hPa
06.12.2022 21:46:41 0.41 km/h 322.1 ° NW 1.44 km/h 0.7 °C 78 % 1017.72 hPa
06.12.2022 21:41:59 0.19 km/h 335.5 ° N-NW 1.8 km/h 0.7 °C 78 % 1017.82 hPa
06.12.2022 21:37:17 0.37 km/h 317.5 ° NW 1.8 km/h 0.7 °C 78 % 1017.82 hPa
06.12.2022 21:32:35 0 km/h 308 ° NW 0 km/h 0.7 °C 78.5 % 1017.72 hPa
06.12.2022 21:27:54 0.32 km/h 330.9 ° N-NW 1.8 km/h 0.8 °C 78 % 1017.72 hPa
06.12.2022 21:23:12 0 km/h 309.1 ° NW 0 km/h 0.8 °C 78 % 1017.72 hPa
06.12.2022 21:18:30 0.11 km/h 358.3 ° N 0.72 km/h 0.8 °C 78 % 1017.82 hPa
06.12.2022 21:13:49 0.44 km/h 351.9 ° N 2.16 km/h 0.8 °C 78 % 1017.82 hPa
06.12.2022 21:09:07 0 km/h 330.5 ° N-NW 0 km/h 0.7 °C 78 % 1017.72 hPa
06.12.2022 21:04:25 0.23 km/h 310.1 ° NW 1.08 km/h 0.7 °C 78 % 1017.72 hPa
06.12.2022 20:59:44 0.08 km/h 311.8 ° NW 0.36 km/h 0.7 °C 78 % 1017.62 hPa
06.12.2022 20:49:26 0.2 km/h 318.7 ° NW 0.72 km/h 0.7 °C 78 % 1017.62 hPa
06.12.2022 20:44:44 0.82 km/h 322.9 ° NW 2.88 km/h 0.7 °C 78 % 1017.72 hPa
06.12.2022 20:40:03 0.66 km/h 328 ° N-NW 3.24 km/h 0.7 °C 79 % 1017.82 hPa
06.12.2022 20:35:21 0.45 km/h 332.4 ° N-NW 3.6 km/h 0.7 °C 78 % 1017.82 hPa
06.12.2022 20:30:39 0 km/h 326.9 ° N-NW 0 km/h 0.7 °C 78 % 1017.82 hPa
06.12.2022 20:25:58 0 km/h 319.1 ° NW 0 km/h 0.7 °C 78 % 1017.72 hPa
06.12.2022 20:21:16 0 km/h 309.1 ° NW 0 km/h 0.8 °C 78 % 1017.72 hPa
06.12.2022 20:16:34 0.05 km/h 308.8 ° NW 0.36 km/h 0.8 °C 78 % 1017.72 hPa
06.12.2022 20:11:53 0.24 km/h 286.3 ° W-NW 1.44 km/h 0.8 °C 78 % 1017.72 hPa
06.12.2022 20:07:11 0 km/h 307.1 ° NW 0 km/h 0.8 °C 78 % 1017.72 hPa
06.12.2022 20:02:30 0.14 km/h 275.2 ° W 0.72 km/h 0.8 °C 78 % 1017.72 hPa
06.12.2022 19:57:48 0 km/h 322.5 ° NW 0 km/h 0.9 °C 78 % 1017.82 hPa
06.12.2022 19:53:06 0.11 km/h 338.3 ° N-NW 0.72 km/h 0.9 °C 78 % 1017.72 hPa
06.12.2022 19:48:25 0.06 km/h 325.7 ° NW 0.36 km/h 0.9 °C 78 % 1017.72 hPa
06.12.2022 19:43:43 0.8 km/h 315.4 ° NW 2.88 km/h 0.8 °C 77.5 % 1017.62 hPa
06.12.2022 19:39:01 0.14 km/h 312 ° NW 1.44 km/h 0.8 °C 78 % 1017.62 hPa
06.12.2022 19:34:19 0.85 km/h 336.2 ° N-NW 2.88 km/h 0.8 °C 78 % 1017.62 hPa
06.12.2022 19:29:38 0.21 km/h 325 ° NW 1.08 km/h 0.8 °C 78 % 1017.62 hPa
06.12.2022 19:24:56 0.55 km/h 304.4 ° NW 2.16 km/h 0.8 °C 77.5 % 1017.62 hPa
06.12.2022 19:20:15 0.18 km/h 325.2 ° NW 1.08 km/h 0.8 °C 78 % 1017.62 hPa
06.12.2022 19:15:33 0.83 km/h 321.2 ° NW 3.24 km/h 0.8 °C 78 % 1017.62 hPa
06.12.2022 19:10:51 0.05 km/h 321.2 ° NW 0.36 km/h 0.8 °C 77 % 1017.62 hPa
06.12.2022 19:06:09 0.71 km/h 307.6 ° NW 2.52 km/h 0.8 °C 78 % 1017.62 hPa
06.12.2022 19:01:28 0.22 km/h 8.6 ° N 2.88 km/h 0.9 °C 78 % 1017.62 hPa
06.12.2022 18:56:46 0.91 km/h 301.7 ° W-NW 2.88 km/h 0.9 °C 78 % 1017.52 hPa
06.12.2022 18:52:04 0.66 km/h 323.6 ° NW 2.88 km/h 0.9 °C 78.5 % 1017.62 hPa
06.12.2022 18:47:22 0 km/h 298.9 ° W-NW 0 km/h 0.9 °C 78 % 1017.62 hPa
06.12.2022 18:42:41 0.35 km/h 286.6 ° W-NW 1.08 km/h 0.9 °C 78 % 1017.62 hPa
06.12.2022 18:37:59 0 km/h 309.3 ° NW 0 km/h 0.9 °C 78.5 % 1017.62 hPa
06.12.2022 18:33:17 2.29 km/h 291.8 ° W-NW 6.12 km/h 0.9 °C 78 % 1017.52 hPa
06.12.2022 18:28:35 1.7 km/h 296.2 ° W-NW 4.32 km/h 0.9 °C 78 % 1017.52 hPa
06.12.2022 18:23:53 1.07 km/h 304.2 ° NW 4.32 km/h 0.9 °C 78 % 1017.52 hPa
06.12.2022 18:19:12 0.01 km/h 329.6 ° N-NW 0.36 km/h 0.9 °C 78 % 1017.42 hPa
06.12.2022 18:14:30 0.5 km/h 278.8 ° W 2.52 km/h 0.9 °C 78 % 1017.52 hPa
06.12.2022 18:09:48 1.37 km/h 294.8 ° W-NW 2.52 km/h 1 °C 78 % 1017.52 hPa
06.12.2022 18:05:06 3.28 km/h 292.6 ° W-NW 5.04 km/h 1 °C 78.5 % 1017.52 hPa
06.12.2022 18:00:25 4.59 km/h 293.7 ° W-NW 7.56 km/h 0.9 °C 79 % 1017.62 hPa
06.12.2022 17:55:42 2.77 km/h 317 ° NW 5.76 km/h 0.9 °C 78 % 1017.52 hPa